sensor_id;sensor_type;location;lat;lon;timestamp;pressure;altitude;pressure_sealevel;temperature;humidity
52227;BME280;38190;59.928;10.446;2022-08-11T00:01:10;101276.53;;;12.44;100.00
52227;BME280;38190;59.928;10.446;2022-08-11T00:04:13;101273.06;;;12.45;100.00
52227;BME280;38190;59.928;10.446;2022-08-11T00:07:14;101272.13;;;12.41;100.00
52227;BME280;38190;59.928;10.446;2022-08-11T00:10:17;101271.19;;;12.25;100.00
52227;BME280;38190;59.928;10.446;2022-08-11T00:13:19;101273.72;;;12.08;100.00
52227;BME280;38190;59.928;10.446;2022-08-11T00:16:22;101271.03;;;12.00;100.00
52227;BME280;38190;59.928;10.446;2022-08-11T00:19:27;101267.56;;;12.02;100.00
52227;BME280;38190;59.928;10.446;2022-08-11T00:22:29;101267.31;;;11.74;100.00
52227;BME280;38190;59.928;10.446;2022-08-11T00:25:39;101262.97;;;11.77;100.00
52227;BME280;38190;59.928;10.446;2022-08-11T00:28:40;101255.22;;;11.94;100.00
52227;BME280;38190;59.928;10.446;2022-08-11T00:31:50;101258.78;;;12.06;98.27
52227;BME280;38190;59.928;10.446;2022-08-11T00:34:52;101263.19;;;12.05;97.36
52227;BME280;38190;59.928;10.446;2022-08-11T00:37:56;101271.75;;;11.82;100.00
52227;BME280;38190;59.928;10.446;2022-08-11T00:41:28;101270.66;;;11.53;100.00
52227;BME280;38190;59.928;10.446;2022-08-11T00:51:29;101269.75;;;11.49;100.00
52227;BME280;38190;59.928;10.446;2022-08-11T01:51:22;101287.06;;;11.29;93.73
52227;BME280;38190;59.928;10.446;2022-08-11T01:54:30;101282.66;;;11.23;93.37
52227;BME280;38190;59.928;10.446;2022-08-11T01:57:49;101281.75;;;11.21;92.99
52227;BME280;38190;59.928;10.446;2022-08-11T02:07:39;101283.44;;;11.13;92.43
52227;BME280;38190;59.928;10.446;2022-08-11T02:10:55;101276.44;;;11.15;91.78
52227;BME280;38190;59.928;10.446;2022-08-11T02:14:38;101287.72;;;11.06;92.47
52227;BME280;38190;59.928;10.446;2022-08-11T02:17:49;101282.13;;;10.75;96.39
52227;BME280;38190;59.928;10.446;2022-08-11T02:20:58;101282.69;;;10.49;97.23
52227;BME280;38190;59.928;10.446;2022-08-11T02:24:27;101288.88;;;10.55;97.32
52227;BME280;38190;59.928;10.446;2022-08-11T02:27:41;101282.63;;;10.45;96.95
52227;BME280;38190;59.928;10.446;2022-08-11T02:31:02;101285.31;;;10.48;96.11
52227;BME280;38190;59.928;10.446;2022-08-11T02:34:37;101284.09;;;10.26;98.71
52227;BME280;38190;59.928;10.446;2022-08-11T02:38:17;101284.56;;;10.60;94.43
52227;BME280;38190;59.928;10.446;2022-08-11T02:41:30;101280.31;;;10.69;93.58
52227;BME280;38190;59.928;10.446;2022-08-11T02:48:39;101282.53;;;10.39;95.73
52227;BME280;38190;59.928;10.446;2022-08-11T02:52:21;101285.88;;;10.28;96.35
52227;BME280;38190;59.928;10.446;2022-08-11T02:55:46;101289.16;;;10.12;97.96
52227;BME280;38190;59.928;10.446;2022-08-11T02:59:07;101288.81;;;9.90;98.69
52227;BME280;38190;59.928;10.446;2022-08-11T03:09:26;101282.38;;;9.68;100.00
52227;BME280;38190;59.928;10.446;2022-08-11T03:12:33;101287.53;;;9.64;99.83
52227;BME280;38190;59.928;10.446;2022-08-11T03:16:32;101299.34;;;9.40;100.00
52227;BME280;38190;59.928;10.446;2022-08-11T03:19:59;101298.84;;;9.61;100.00
52227;BME280;38190;59.928;10.446;2022-08-11T03:23:29;101304.09;;;9.63;99.76
52227;BME280;38190;59.928;10.446;2022-08-11T03:30:20;101304.50;;;9.87;97.13
52227;BME280;38190;59.928;10.446;2022-08-11T03:33:29;101302.38;;;9.65;98.99
52227;BME280;38190;59.928;10.446;2022-08-11T03:37:26;101300.41;;;9.51;99.60
52227;BME280;38190;59.928;10.446;2022-08-11T03:41:22;101296.00;;;9.47;100.00
52227;BME280;38190;59.928;10.446;2022-08-11T03:48:24;101314.22;;;9.41;100.00
52227;BME280;38190;59.928;10.446;2022-08-11T03:51:38;101300.47;;;9.54;100.00
52227;BME280;38190;59.928;10.446;2022-08-11T03:58:39;101310.00;;;9.49;100.00
52227;BME280;38190;59.928;10.446;2022-08-11T04:05:26;101314.00;;;9.81;99.03
52227;BME280;38190;59.928;10.446;2022-08-11T04:08:56;101315.75;;;9.78;98.85
52227;BME280;38190;59.928;10.446;2022-08-11T04:19:20;101328.47;;;10.10;96.44
52227;BME280;38190;59.928;10.446;2022-08-11T04:55:08;101314.69;;;10.88;97.40
52227;BME280;38190;59.928;10.446;2022-08-11T05:02:29;101320.97;;;11.01;94.56
52227;BME280;38190;59.928;10.446;2022-08-11T05:12:54;101318.06;;;11.60;91.88
52227;BME280;38190;59.928;10.446;2022-08-11T05:15:57;101330.53;;;11.85;92.31
52227;BME280;38190;59.928;10.446;2022-08-11T05:19:19;101329.84;;;12.07;91.55
52227;BME280;38190;59.928;10.446;2022-08-11T05:22:45;101335.19;;;12.21;92.36
52227;BME280;38190;59.928;10.446;2022-08-11T05:26:08;101332.56;;;12.19;92.14
52227;BME280;38190;59.928;10.446;2022-08-11T05:29:54;101331.91;;;12.56;89.35
52227;BME280;38190;59.928;10.446;2022-08-11T05:33:33;101331.09;;;12.74;88.45
52227;BME280;38190;59.928;10.446;2022-08-11T05:37:08;101331.25;;;13.11;87.94
52227;BME280;38190;59.928;10.446;2022-08-11T05:40:11;101331.25;;;13.20;88.55
52227;BME280;38190;59.928;10.446;2022-08-11T05:43:32;101336.63;;;13.34;88.35
52227;BME280;38190;59.928;10.446;2022-08-11T05:46:53;101340.16;;;13.45;87.94
52227;BME280;38190;59.928;10.446;2022-08-11T05:50:14;101344.53;;;13.48;85.10
52227;BME280;38190;59.928;10.446;2022-08-11T05:53:43;101334.03;;;13.76;84.96
52227;BME280;38190;59.928;10.446;2022-08-11T05:57:04;101327.84;;;14.05;87.42
52227;BME280;38190;59.928;10.446;2022-08-11T06:00:07;101332.22;;;14.30;83.84
52227;BME280;38190;59.928;10.446;2022-08-11T06:03:09;101334.00;;;14.16;85.59
52227;BME280;38190;59.928;10.446;2022-08-11T06:06:10;101334.84;;;14.33;84.59
52227;BME280;38190;59.928;10.446;2022-08-11T06:09:12;101340.09;;;14.47;82.45
52227;BME280;38190;59.928;10.446;2022-08-11T06:12:29;101345.28;;;14.86;82.49
52227;BME280;38190;59.928;10.446;2022-08-11T06:15:43;101347.81;;;15.09;84.82
52227;BME280;38190;59.928;10.446;2022-08-11T06:18:46;101341.63;;;15.18;85.06
52227;BME280;38190;59.928;10.446;2022-08-11T06:21:48;101346.81;;;15.30;83.53
52227;BME280;38190;59.928;10.446;2022-08-11T06:24:56;101339.72;;;15.37;83.77
52227;BME280;38190;59.928;10.446;2022-08-11T06:27:58;101342.34;;;15.41;86.25
52227;BME280;38190;59.928;10.446;2022-08-11T06:31:09;101338.72;;;15.55;82.85
52227;BME280;38190;59.928;10.446;2022-08-11T06:34:19;101347.53;;;15.58;83.56
52227;BME280;38190;59.928;10.446;2022-08-11T06:37:52;101345.59;;;15.83;82.04
52227;BME280;38190;59.928;10.446;2022-08-11T06:41:03;101354.06;;;16.26;78.98
52227;BME280;38190;59.928;10.446;2022-08-11T06:44:32;101349.81;;;16.91;77.91
52227;BME280;38190;59.928;10.446;2022-08-11T06:47:45;101352.72;;;17.38;78.66
52227;BME280;38190;59.928;10.446;2022-08-11T06:51:03;101341.47;;;17.78;79.00
52227;BME280;38190;59.928;10.446;2022-08-11T06:54:12;101342.59;;;18.18;71.90
52227;BME280;38190;59.928;10.446;2022-08-11T06:57:14;101341.00;;;18.09;69.78
52227;BME280;38190;59.928;10.446;2022-08-11T07:00:34;101337.66;;;17.96;70.35
52227;BME280;38190;59.928;10.446;2022-08-11T07:03:38;101332.91;;;18.14;70.87
52227;BME280;38190;59.928;10.446;2022-08-11T07:06:54;101335.06;;;18.41;70.80
52227;BME280;38190;59.928;10.446;2022-08-11T07:10:20;101332.53;;;18.80;69.73
52227;BME280;38190;59.928;10.446;2022-08-11T07:13:44;101326.47;;;19.16;64.84
52227;BME280;38190;59.928;10.446;2022-08-11T07:17:07;101333.09;;;19.37;64.14
52227;BME280;38190;59.928;10.446;2022-08-11T07:20:11;101329.88;;;19.60;65.44
52227;BME280;38190;59.928;10.446;2022-08-11T07:23:33;101332.09;;;20.15;58.17
52227;BME280;38190;59.928;10.446;2022-08-11T07:26:54;101338.88;;;20.91;60.15
52227;BME280;38190;59.928;10.446;2022-08-11T07:30:13;101338.72;;;21.55;60.65
52227;BME280;38190;59.928;10.446;2022-08-11T07:33:18;101340.38;;;21.29;54.53
52227;BME280;38190;59.928;10.446;2022-08-11T07:36:24;101334.06;;;21.04;59.05
52227;BME280;38190;59.928;10.446;2022-08-11T07:39:30;101335.91;;;21.30;60.14
52227;BME280;38190;59.928;10.446;2022-08-11T07:42:33;101343.50;;;21.15;53.99
52227;BME280;38190;59.928;10.446;2022-08-11T07:45:41;101351.44;;;22.52;55.76
52227;BME280;38190;59.928;10.446;2022-08-11T07:49:02;101333.84;;;22.46;52.97
52227;BME280;38190;59.928;10.446;2022-08-11T07:52:22;101333.78;;;22.95;52.72
52227;BME280;38190;59.928;10.446;2022-08-11T07:55:30;101336.28;;;23.00;52.90
52227;BME280;38190;59.928;10.446;2022-08-11T07:58:34;101338.34;;;22.93;55.28
52227;BME280;38190;59.928;10.446;2022-08-11T08:01:54;101331.38;;;23.35;50.73
52227;BME280;38190;59.928;10.446;2022-08-11T08:05:13;101334.44;;;23.92;52.40
52227;BME280;38190;59.928;10.446;2022-08-11T08:08:35;101338.38;;;23.61;55.14
52227;BME280;38190;59.928;10.446;2022-08-11T08:11:55;101344.50;;;23.87;51.69
52227;BME280;38190;59.928;10.446;2022-08-11T08:15:16;101333.75;;;23.65;49.05
52227;BME280;38190;59.928;10.446;2022-08-11T08:18:36;101335.63;;;23.40;52.00
52227;BME280;38190;59.928;10.446;2022-08-11T08:21:38;101339.38;;;23.58;54.51
52227;BME280;38190;59.928;10.446;2022-08-11T08:24:38;101342.84;;;23.38;51.89
52227;BME280;38190;59.928;10.446;2022-08-11T08:27:41;101348.22;;;23.61;57.14
52227;BME280;38190;59.928;10.446;2022-08-11T08:30:43;101344.69;;;24.03;51.85
52227;BME280;38190;59.928;10.446;2022-08-11T08:33:46;101341.22;;;24.62;48.76
52227;BME280;38190;59.928;10.446;2022-08-11T08:36:49;101334.63;;;23.43;51.76
52227;BME280;38190;59.928;10.446;2022-08-11T08:39:50;101336.66;;;24.64;50.34
52227;BME280;38190;59.928;10.446;2022-08-11T08:42:54;101331.66;;;26.06;52.97
52227;BME280;38190;59.928;10.446;2022-08-11T08:45:55;101340.63;;;26.57;42.94
52227;BME280;38190;59.928;10.446;2022-08-11T08:49:01;101334.94;;;26.63;49.18
52227;BME280;38190;59.928;10.446;2022-08-11T08:52:02;101337.41;;;26.84;44.47
52227;BME280;38190;59.928;10.446;2022-08-11T08:55:05;101335.28;;;26.22;44.46
52227;BME280;38190;59.928;10.446;2022-08-11T08:58:07;101317.28;;;27.23;42.32
52227;BME280;38190;59.928;10.446;2022-08-11T09:01:09;101320.66;;;26.95;42.53
52227;BME280;38190;59.928;10.446;2022-08-11T09:04:11;101326.75;;;27.30;43.14
52227;BME280;38190;59.928;10.446;2022-08-11T09:07:16;101326.88;;;26.79;43.67
52227;BME280;38190;59.928;10.446;2022-08-11T09:10:18;101316.91;;;26.97;43.95
52227;BME280;38190;59.928;10.446;2022-08-11T09:13:19;101326.63;;;26.68;48.17
52227;BME280;38190;59.928;10.446;2022-08-11T09:16:21;101323.19;;;26.98;41.59
52227;BME280;38190;59.928;10.446;2022-08-11T09:19:24;101326.38;;;26.88;45.27
52227;BME280;38190;59.928;10.446;2022-08-11T09:22:27;101318.28;;;26.88;43.17
52227;BME280;38190;59.928;10.446;2022-08-11T09:25:48;101325.25;;;26.93;43.88
52227;BME280;38190;59.928;10.446;2022-08-11T09:29:08;101318.13;;;26.92;42.46
52227;BME280;38190;59.928;10.446;2022-08-11T09:32:10;101321.00;;;27.20;42.38
52227;BME280;38190;59.928;10.446;2022-08-11T09:35:11;101321.28;;;27.78;41.23
52227;BME280;38190;59.928;10.446;2022-08-11T09:38:16;101319.00;;;28.02;41.83
52227;BME280;38190;59.928;10.446;2022-08-11T09:41:38;101312.03;;;27.52;41.17
52227;BME280;38190;59.928;10.446;2022-08-11T09:44:39;101309.56;;;27.33;40.56
52227;BME280;38190;59.928;10.446;2022-08-11T09:47:52;101308.72;;;27.63;39.18
52227;BME280;38190;59.928;10.446;2022-08-11T09:50:54;101313.81;;;27.37;41.07
52227;BME280;38190;59.928;10.446;2022-08-11T09:53:58;101305.94;;;27.64;43.98
52227;BME280;38190;59.928;10.446;2022-08-11T09:57:00;101303.41;;;27.91;38.00
52227;BME280;38190;59.928;10.446;2022-08-11T10:00:19;101299.19;;;27.87;38.43
52227;BME280;38190;59.928;10.446;2022-08-11T10:03:27;101293.38;;;28.09;38.08
52227;BME280;38190;59.928;10.446;2022-08-11T10:06:31;101300.50;;;28.10;38.82
52227;BME280;38190;59.928;10.446;2022-08-11T10:09:58;101305.84;;;28.41;37.65
52227;BME280;38190;59.928;10.446;2022-08-11T10:13:04;101294.03;;;28.99;37.99
52227;BME280;38190;59.928;10.446;2022-08-11T10:16:07;101284.66;;;29.19;37.10
52227;BME280;38190;59.928;10.446;2022-08-11T10:19:09;101285.97;;;28.85;38.20
52227;BME280;38190;59.928;10.446;2022-08-11T10:22:10;101283.59;;;29.62;37.05
52227;BME280;38190;59.928;10.446;2022-08-11T10:25:32;101287.38;;;29.05;37.42
52227;BME280;38190;59.928;10.446;2022-08-11T10:29:00;101276.53;;;29.19;37.58
52227;BME280;38190;59.928;10.446;2022-08-11T10:32:02;101283.41;;;29.11;38.02
52227;BME280;38190;59.928;10.446;2022-08-11T10:35:23;101282.50;;;28.54;39.10
52227;BME280;38190;59.928;10.446;2022-08-11T10:38:26;101277.50;;;29.45;36.35
52227;BME280;38190;59.928;10.446;2022-08-11T10:41:28;101272.25;;;28.88;35.43
52227;BME280;38190;59.928;10.446;2022-08-11T10:44:51;101269.78;;;28.27;37.53
52227;BME280;38190;59.928;10.446;2022-08-11T10:47:55;101268.31;;;28.79;38.93
52227;BME280;38190;59.928;10.446;2022-08-11T10:50:56;101267.66;;;29.03;40.10
52227;BME280;38190;59.928;10.446;2022-08-11T10:54:14;101265.13;;;28.73;37.32
52227;BME280;38190;59.928;10.446;2022-08-11T10:57:33;101251.50;;;29.30;35.58
52227;BME280;38190;59.928;10.446;2022-08-11T11:00:53;101258.72;;;29.57;36.48
52227;BME280;38190;59.928;10.446;2022-08-11T11:04:00;101262.06;;;29.88;34.80
52227;BME280;38190;59.928;10.446;2022-08-11T11:07:37;101253.84;;;29.89;37.46
52227;BME280;38190;59.928;10.446;2022-08-11T11:10:31;101247.19;;;29.80;34.35
52227;BME280;38190;59.928;10.446;2022-08-11T11:13:33;101238.88;;;29.84;37.84
52227;BME280;38190;59.928;10.446;2022-08-11T11:16:55;101247.19;;;29.13;35.48
52227;BME280;38190;59.928;10.446;2022-08-11T11:20:18;101242.31;;;28.91;35.58
52227;BME280;38190;59.928;10.446;2022-08-11T11:23:54;101244.81;;;28.94;36.52
52227;BME280;38190;59.928;10.446;2022-08-11T11:26:56;101238.50;;;29.75;39.74
52227;BME280;38190;59.928;10.446;2022-08-11T11:30:06;101239.47;;;29.61;36.21
52227;BME280;38190;59.928;10.446;2022-08-11T11:36:45;101237.56;;;30.28;33.27
52227;BME280;38190;59.928;10.446;2022-08-11T11:39:47;101230.41;;;30.27;33.97
52227;BME280;38190;59.928;10.446;2022-08-11T11:42:49;101233.22;;;30.88;31.37
52227;BME280;38190;59.928;10.446;2022-08-11T11:45:51;101222.84;;;30.45;32.47
52227;BME280;38190;59.928;10.446;2022-08-11T11:48:53;101220.75;;;29.18;33.73
52227;BME280;38190;59.928;10.446;2022-08-11T11:51:56;101220.22;;;29.66;34.04
52227;BME280;38190;59.928;10.446;2022-08-11T11:54:57;101222.25;;;27.66;37.69
52227;BME280;38190;59.928;10.446;2022-08-11T11:58:01;101207.03;;;30.00;34.58
52227;BME280;38190;59.928;10.446;2022-08-11T12:01:21;101220.56;;;30.88;32.65
52227;BME280;38190;59.928;10.446;2022-08-11T12:04:24;101205.09;;;30.15;34.64
52227;BME280;38190;59.928;10.446;2022-08-11T12:07:27;101209.53;;;30.79;33.80
52227;BME280;38190;59.928;10.446;2022-08-11T12:11:07;101211.38;;;30.41;34.97
52227;BME280;38190;59.928;10.446;2022-08-11T12:14:28;101211.59;;;30.12;34.58
52227;BME280;38190;59.928;10.446;2022-08-11T12:17:29;101194.88;;;29.67;34.96
52227;BME280;38190;59.928;10.446;2022-08-11T12:20:30;101198.69;;;28.70;37.03
52227;BME280;38190;59.928;10.446;2022-08-11T12:23:33;101200.19;;;30.20;38.52
52227;BME280;38190;59.928;10.446;2022-08-11T12:26:53;101201.53;;;31.25;33.25
52227;BME280;38190;59.928;10.446;2022-08-11T12:29:59;101196.94;;;31.50;35.37
52227;BME280;38190;59.928;10.446;2022-08-11T12:33:07;101197.91;;;31.49;30.04
52227;BME280;38190;59.928;10.446;2022-08-11T12:36:09;101190.38;;;31.41;31.22
52227;BME280;38190;59.928;10.446;2022-08-11T12:39:20;101181.88;;;30.24;32.77
52227;BME280;38190;59.928;10.446;2022-08-11T12:42:43;101180.66;;;30.90;30.64
52227;BME280;38190;59.928;10.446;2022-08-11T12:46:09;101177.91;;;30.42;32.49
52227;BME280;38190;59.928;10.446;2022-08-11T12:49:19;101180.88;;;29.35;33.12
52227;BME280;38190;59.928;10.446;2022-08-11T12:52:44;101167.28;;;29.75;35.96
52227;BME280;38190;59.928;10.446;2022-08-11T12:55:48;101167.41;;;29.73;33.15
52227;BME280;38190;59.928;10.446;2022-08-11T12:59:08;101166.53;;;30.37;37.67
52227;BME280;38190;59.928;10.446;2022-08-11T13:02:27;101162.88;;;30.12;32.02
52227;BME280;38190;59.928;10.446;2022-08-11T13:05:47;101162.72;;;29.75;33.30
52227;BME280;38190;59.928;10.446;2022-08-11T13:08:52;101162.72;;;29.10;33.24
52227;BME280;38190;59.928;10.446;2022-08-11T13:11:58;101159.88;;;29.25;35.33
52227;BME280;38190;59.928;10.446;2022-08-11T13:15:22;101161.72;;;29.25;34.66
52227;BME280;38190;59.928;10.446;2022-08-11T13:18:25;101157.13;;;29.78;33.92
52227;BME280;38190;59.928;10.446;2022-08-11T13:21:28;101157.63;;;29.45;34.64
52227;BME280;38190;59.928;10.446;2022-08-11T13:24:30;101151.31;;;29.19;36.58
52227;BME280;38190;59.928;10.446;2022-08-11T13:27:34;101142.16;;;28.38;36.07
52227;BME280;38190;59.928;10.446;2022-08-11T13:30:35;101151.94;;;28.26;37.95
52227;BME280;38190;59.928;10.446;2022-08-11T13:33:55;101143.84;;;28.68;38.21
52227;BME280;38190;59.928;10.446;2022-08-11T13:36:59;101149.41;;;28.38;38.83
52227;BME280;38190;59.928;10.446;2022-08-11T13:40:00;101141.88;;;28.57;38.15
52227;BME280;38190;59.928;10.446;2022-08-11T13:43:01;101133.16;;;28.66;38.97
52227;BME280;38190;59.928;10.446;2022-08-11T13:46:02;101140.63;;;28.90;39.79
52227;BME280;38190;59.928;10.446;2022-08-11T13:49:20;101135.09;;;27.94;40.77
52227;BME280;38190;59.928;10.446;2022-08-11T13:52:21;101132.09;;;27.98;41.74
52227;BME280;38190;59.928;10.446;2022-08-11T13:55:22;101133.41;;;28.34;40.37
52227;BME280;38190;59.928;10.446;2022-08-11T13:58:23;101131.84;;;28.59;41.45
52227;BME280;38190;59.928;10.446;2022-08-11T14:01:28;101136.69;;;27.68;42.33
52227;BME280;38190;59.928;10.446;2022-08-11T14:04:35;101134.59;;;28.16;40.41
52227;BME280;38190;59.928;10.446;2022-08-11T14:07:42;101138.28;;;27.41;40.91
52227;BME280;38190;59.928;10.446;2022-08-11T14:10:48;101145.16;;;27.01;43.73
52227;BME280;38190;59.928;10.446;2022-08-11T14:14:09;101147.88;;;26.85;42.28
52227;BME280;38190;59.928;10.446;2022-08-11T14:17:14;101131.91;;;26.34;43.73
52227;BME280;38190;59.928;10.446;2022-08-11T14:20:18;101138.06;;;26.36;43.85
52227;BME280;38190;59.928;10.446;2022-08-11T14:23:27;101135.72;;;26.78;44.32
52227;BME280;38190;59.928;10.446;2022-08-11T14:26:29;101130.41;;;26.44;44.06
52227;BME280;38190;59.928;10.446;2022-08-11T14:29:37;101121.72;;;26.39;46.76
52227;BME280;38190;59.928;10.446;2022-08-11T14:32:38;101121.81;;;26.06;45.46
52227;BME280;38190;59.928;10.446;2022-08-11T14:35:39;101139.94;;;26.18;45.75
52227;BME280;38190;59.928;10.446;2022-08-11T14:38:40;101125.91;;;26.29;47.00
52227;BME280;38190;59.928;10.446;2022-08-11T14:41:44;101136.09;;;26.06;47.72
52227;BME280;38190;59.928;10.446;2022-08-11T14:45:06;101125.00;;;25.46;46.87
52227;BME280;38190;59.928;10.446;2022-08-11T14:48:26;101121.97;;;25.52;46.89
52227;BME280;38190;59.928;10.446;2022-08-11T14:51:27;101125.50;;;25.00;47.69
52227;BME280;38190;59.928;10.446;2022-08-11T14:54:29;101125.25;;;24.87;49.78
52227;BME280;38190;59.928;10.446;2022-08-11T14:57:49;101083.75;;;24.58;49.71
52227;BME280;38190;59.928;10.446;2022-08-11T15:00:56;101109.34;;;24.82;48.54
52227;BME280;38190;59.928;10.446;2022-08-11T15:03:58;101112.16;;;24.81;49.18
52227;BME280;38190;59.928;10.446;2022-08-11T15:06:59;101107.91;;;24.94;49.33
52227;BME280;38190;59.928;10.446;2022-08-11T15:10:05;101113.41;;;24.91;47.83
52227;BME280;38190;59.928;10.446;2022-08-11T15:13:07;101109.84;;;24.73;50.54
52227;BME280;38190;59.928;10.446;2022-08-11T15:16:07;101111.00;;;24.67;48.75
52227;BME280;38190;59.928;10.446;2022-08-11T15:19:28;101104.78;;;24.48;50.33
52227;BME280;38190;59.928;10.446;2022-08-11T15:22:30;101093.38;;;24.62;50.53
52227;BME280;38190;59.928;10.446;2022-08-11T15:25:58;101090.84;;;24.40;49.73
52227;BME280;38190;59.928;10.446;2022-08-11T15:28:59;101099.34;;;24.30;50.83
52227;BME280;38190;59.928;10.446;2022-08-11T15:32:39;101090.84;;;24.40;52.42
52227;BME280;38190;59.928;10.446;2022-08-11T15:36:03;101096.66;;;24.49;52.34
52227;BME280;38190;59.928;10.446;2022-08-11T15:39:23;101093.41;;;24.24;53.53
52227;BME280;38190;59.928;10.446;2022-08-11T15:42:27;101085.94;;;24.11;52.77
52227;BME280;38190;59.928;10.446;2022-08-11T15:45:51;101087.81;;;24.28;52.49
52227;BME280;38190;59.928;10.446;2022-08-11T15:48:58;101089.91;;;24.03;52.37
52227;BME280;38190;59.928;10.446;2022-08-11T15:52:12;101082.00;;;24.00;52.17
52227;BME280;38190;59.928;10.446;2022-08-11T15:55:15;101088.69;;;24.10;53.18
52227;BME280;38190;59.928;10.446;2022-08-11T15:58:18;101074.78;;;24.02;53.59
52227;BME280;38190;59.928;10.446;2022-08-11T16:01:39;101059.34;;;24.07;52.40
52227;BME280;38190;59.928;10.446;2022-08-11T16:05:02;101066.66;;;23.84;53.19
52227;BME280;38190;59.928;10.446;2022-08-11T16:08:05;101061.06;;;24.08;53.83
52227;BME280;38190;59.928;10.446;2022-08-11T16:11:07;101053.53;;;23.97;52.81
52227;BME280;38190;59.928;10.446;2022-08-11T16:14:10;101070.28;;;23.83;53.31
52227;BME280;38190;59.928;10.446;2022-08-11T16:17:33;101060.81;;;23.74;54.41
52227;BME280;38190;59.928;10.446;2022-08-11T16:20:34;101064.59;;;23.70;54.44
52227;BME280;38190;59.928;10.446;2022-08-11T16:23:36;101064.97;;;23.82;54.66
52227;BME280;38190;59.928;10.446;2022-08-11T16:26:40;101063.03;;;23.85;54.26
52227;BME280;38190;59.928;10.446;2022-08-11T16:29:43;101059.59;;;23.82;54.83
52227;BME280;38190;59.928;10.446;2022-08-11T16:32:47;101062.06;;;23.86;54.45
52227;BME280;38190;59.928;10.446;2022-08-11T16:35:52;101066.22;;;23.93;54.53
52227;BME280;38190;59.928;10.446;2022-08-11T16:39:13;101057.66;;;24.04;53.90
52227;BME280;38190;59.928;10.446;2022-08-11T16:42:17;101061.97;;;24.45;53.52
52227;BME280;38190;59.928;10.446;2022-08-11T16:45:38;101053.22;;;24.78;52.14
52227;BME280;38190;59.928;10.446;2022-08-11T16:48:58;101057.16;;;25.23;51.14
52227;BME280;38190;59.928;10.446;2022-08-11T16:51:59;101042.94;;;25.38;49.98
52227;BME280;38190;59.928;10.446;2022-08-11T16:55:17;101047.75;;;25.49;50.05
52227;BME280;38190;59.928;10.446;2022-08-11T16:58:23;101055.41;;;25.22;50.72
52227;BME280;38190;59.928;10.446;2022-08-11T17:01:43;101052.31;;;24.41;52.62
52227;BME280;38190;59.928;10.446;2022-08-11T17:04:52;101047.06;;;24.01;53.95
52227;BME280;38190;59.928;10.446;2022-08-11T17:08:12;101044.41;;;23.62;54.84
52227;BME280;38190;59.928;10.446;2022-08-11T17:11:39;101053.84;;;23.10;57.28
52227;BME280;38190;59.928;10.446;2022-08-11T17:15:02;101055.59;;;23.11;57.54
52227;BME280;38190;59.928;10.446;2022-08-11T17:18:27;101057.09;;;22.96;57.40
52227;BME280;38190;59.928;10.446;2022-08-11T17:21:47;101049.91;;;22.76;58.15
52227;BME280;38190;59.928;10.446;2022-08-11T17:25:07;101052.75;;;22.51;59.60
52227;BME280;38190;59.928;10.446;2022-08-11T17:28:10;101054.53;;;22.28;60.08
52227;BME280;38190;59.928;10.446;2022-08-11T17:31:13;101054.13;;;22.39;60.15
52227;BME280;38190;59.928;10.446;2022-08-11T17:34:33;101063.94;;;22.15;61.23
52227;BME280;38190;59.928;10.446;2022-08-11T17:37:52;101058.84;;;22.09;61.41
52227;BME280;38190;59.928;10.446;2022-08-11T17:40:58;101052.91;;;22.01;61.29
52227;BME280;38190;59.928;10.446;2022-08-11T17:44:19;101054.09;;;21.93;61.94
52227;BME280;38190;59.928;10.446;2022-08-11T17:47:38;101059.25;;;21.74;62.54
52227;BME280;38190;59.928;10.446;2022-08-11T17:51:02;101061.06;;;21.74;62.47
52227;BME280;38190;59.928;10.446;2022-08-11T17:54:04;101064.25;;;21.60;63.08
52227;BME280;38190;59.928;10.446;2022-08-11T17:57:25;101065.28;;;21.56;62.85
52227;BME280;38190;59.928;10.446;2022-08-11T18:00:48;101055.03;;;21.44;63.97
52227;BME280;38190;59.928;10.446;2022-08-11T18:03:51;101058.97;;;21.33;64.82
52227;BME280;38190;59.928;10.446;2022-08-11T18:06:53;101060.16;;;21.25;64.88
52227;BME280;38190;59.928;10.446;2022-08-11T18:09:55;101062.00;;;21.23;65.64
52227;BME280;38190;59.928;10.446;2022-08-11T18:13:16;101067.28;;;20.99;67.16
52227;BME280;38190;59.928;10.446;2022-08-11T18:16:37;101057.25;;;20.80;67.66
52227;BME280;38190;59.928;10.446;2022-08-11T18:19:56;101066.63;;;20.66;68.57
52227;BME280;38190;59.928;10.446;2022-08-11T18:23:18;101066.97;;;20.53;69.21
52227;BME280;38190;59.928;10.446;2022-08-11T18:26:42;101072.63;;;20.44;69.35
52227;BME280;38190;59.928;10.446;2022-08-11T18:30:04;101068.78;;;20.24;70.83
52227;BME280;38190;59.928;10.446;2022-08-11T18:33:26;101077.06;;;20.15;71.00
52227;BME280;38190;59.928;10.446;2022-08-11T18:37:02;101076.47;;;20.05;71.62
52227;BME280;38190;59.928;10.446;2022-08-11T18:40:25;101087.41;;;19.96;72.37
52227;BME280;38190;59.928;10.446;2022-08-11T18:43:47;101087.13;;;19.74;72.87
52227;BME280;38190;59.928;10.446;2022-08-11T18:47:09;101086.25;;;19.75;72.95
52227;BME280;38190;59.928;10.446;2022-08-11T18:50:29;101089.50;;;19.53;74.02
52227;BME280;38190;59.928;10.446;2022-08-11T18:53:56;101102.28;;;19.39;74.92
52227;BME280;38190;59.928;10.446;2022-08-11T18:57:18;101105.69;;;19.11;76.78
52227;BME280;38190;59.928;10.446;2022-08-11T19:00:39;101107.19;;;18.87;77.51
52227;BME280;38190;59.928;10.446;2022-08-11T19:04:02;101107.81;;;18.59;79.61